Des Moines (DSM/KDSM)

Map

Destinations

Information

Location
Des Moines, IA
Local Time
03:10 / 3:10 am
GMT Time
08:10 / 8:10 am
Gates
7
No FAA reported delays
METAR KDSM 270754Z 05003KT 10SM FEW250 17/16 A2987 RMK AO2 SLP108 T01720156
TAF KDSM 270520Z 2706/2806 VRB05KT P6SM FEW070 FM271100 VRB05KT 4SM BR BKN060 FM271400 11005KT P6SM BKN050 FM271800 08006KT P6SM VCTS BKN050CB FM272100 06008KT P6SM -SHRA VCTS OVC050CB FM280000 03008KT P6SM -SHRA OVC050